sensor_id;sensor_type;location;lat;lon;timestamp;temperature;humidity
46231;DHT22;31949;51.404;-0.038;2022-09-29T00:01:06;8.30;99.90
46231;DHT22;31949;51.404;-0.038;2022-09-29T00:03:33;8.30;99.90
46231;DHT22;31949;51.404;-0.038;2022-09-29T00:06:00;8.30;99.90
46231;DHT22;31949;51.404;-0.038;2022-09-29T00:08:29;8.30;99.90
46231;DHT22;31949;51.404;-0.038;2022-09-29T00:10:56;8.30;99.90
46231;DHT22;31949;51.404;-0.038;2022-09-29T00:13:24;8.20;99.90
46231;DHT22;31949;51.404;-0.038;2022-09-29T00:15:59;8.20;99.90
46231;DHT22;31949;51.404;-0.038;2022-09-29T00:18:27;8.20;99.90
46231;DHT22;31949;51.404;-0.038;2022-09-29T00:21:09;8.20;99.90
46231;DHT22;31949;51.404;-0.038;2022-09-29T00:23:37;8.10;99.90
46231;DHT22;31949;51.404;-0.038;2022-09-29T00:26:12;8.10;99.90
46231;DHT22;31949;51.404;-0.038;2022-09-29T00:28:44;8.10;99.90
46231;DHT22;31949;51.404;-0.038;2022-09-29T00:31:12;8.00;99.90
46231;DHT22;31949;51.404;-0.038;2022-09-29T00:33:40;8.00;99.90
46231;DHT22;31949;51.404;-0.038;2022-09-29T00:36:13;7.90;99.90
46231;DHT22;31949;51.404;-0.038;2022-09-29T00:38:42;7.90;99.90
46231;DHT22;31949;51.404;-0.038;2022-09-29T00:41:21;7.90;99.90
46231;DHT22;31949;51.404;-0.038;2022-09-29T00:44:00;7.80;99.90
46231;DHT22;31949;51.404;-0.038;2022-09-29T00:49:28;7.90;99.90
46231;DHT22;31949;51.404;-0.038;2022-09-29T00:52:11;7.80;99.90
46231;DHT22;31949;51.404;-0.038;2022-09-29T00:54:52;7.80;99.90
46231;DHT22;31949;51.404;-0.038;2022-09-29T00:57:29;7.80;99.90
46231;DHT22;31949;51.404;-0.038;2022-09-29T01:00:07;7.80;99.90
46231;DHT22;31949;51.404;-0.038;2022-09-29T01:02:39;7.80;99.90
46231;DHT22;31949;51.404;-0.038;2022-09-29T01:05:13;7.70;99.90
46231;DHT22;31949;51.404;-0.038;2022-09-29T01:07:40;7.80;99.90
46231;DHT22;31949;51.404;-0.038;2022-09-29T01:10:11;7.70;99.90
46231;DHT22;31949;51.404;-0.038;2022-09-29T01:12:40;7.70;99.90
46231;DHT22;31949;51.404;-0.038;2022-09-29T01:15:08;7.60;99.90
46231;DHT22;31949;51.404;-0.038;2022-09-29T01:17:36;7.60;99.90
46231;DHT22;31949;51.404;-0.038;2022-09-29T01:20:13;7.60;99.90
46231;DHT22;31949;51.404;-0.038;2022-09-29T01:23:07;7.60;99.90
46231;DHT22;31949;51.404;-0.038;2022-09-29T01:29:08;7.50;99.90
46231;DHT22;31949;51.404;-0.038;2022-09-29T01:34:39;7.50;99.90
46231;DHT22;31949;51.404;-0.038;2022-09-29T01:37:15;7.40;99.90
46231;DHT22;31949;51.404;-0.038;2022-09-29T01:40:05;7.40;99.90
46231;DHT22;31949;51.404;-0.038;2022-09-29T01:42:57;7.40;99.90
46231;DHT22;31949;51.404;-0.038;2022-09-29T01:45:35;7.30;99.90
46231;DHT22;31949;51.404;-0.038;2022-09-29T01:48:12;7.30;99.90
46231;DHT22;31949;51.404;-0.038;2022-09-29T01:50:45;7.30;99.90
46231;DHT22;31949;51.404;-0.038;2022-09-29T01:53:18;7.30;99.90
46231;DHT22;31949;51.404;-0.038;2022-09-29T01:55:50;7.30;99.90
46231;DHT22;31949;51.404;-0.038;2022-09-29T01:58:26;7.20;99.90
46231;DHT22;31949;51.404;-0.038;2022-09-29T02:00:57;7.20;99.90
46231;DHT22;31949;51.404;-0.038;2022-09-29T02:06:09;7.20;99.90
46231;DHT22;31949;51.404;-0.038;2022-09-29T02:08:51;7.10;99.90
46231;DHT22;31949;51.404;-0.038;2022-09-29T02:11:19;7.10;99.90
46231;DHT22;31949;51.404;-0.038;2022-09-29T02:14:01;7.10;99.90
46231;DHT22;31949;51.404;-0.038;2022-09-29T02:16:37;7.10;99.90
46231;DHT22;31949;51.404;-0.038;2022-09-29T02:19:21;7.00;99.90
46231;DHT22;31949;51.404;-0.038;2022-09-29T02:21:50;6.90;99.90
46231;DHT22;31949;51.404;-0.038;2022-09-29T02:24:21;6.90;99.90
46231;DHT22;31949;51.404;-0.038;2022-09-29T02:26:49;6.80;99.90
46231;DHT22;31949;51.404;-0.038;2022-09-29T02:29:17;6.80;99.90
46231;DHT22;31949;51.404;-0.038;2022-09-29T02:31:46;6.90;99.90
46231;DHT22;31949;51.404;-0.038;2022-09-29T02:34:16;6.80;99.90
46231;DHT22;31949;51.404;-0.038;2022-09-29T02:36:59;6.80;99.90
46231;DHT22;31949;51.404;-0.038;2022-09-29T02:45:22;6.80;99.90
46231;DHT22;31949;51.404;-0.038;2022-09-29T02:48:20;6.80;99.90
46231;DHT22;31949;51.404;-0.038;2022-09-29T02:51:05;6.70;99.90
46231;DHT22;31949;51.404;-0.038;2022-09-29T02:59:24;6.60;99.90
46231;DHT22;31949;51.404;-0.038;2022-09-29T03:01:54;6.60;99.90
46231;DHT22;31949;51.404;-0.038;2022-09-29T03:04:25;6.60;99.90
46231;DHT22;31949;51.404;-0.038;2022-09-29T03:06:53;6.60;99.90
46231;DHT22;31949;51.404;-0.038;2022-09-29T03:09:20;6.60;99.90
46231;DHT22;31949;51.404;-0.038;2022-09-29T03:11:47;6.60;99.90
46231;DHT22;31949;51.404;-0.038;2022-09-29T03:14:15;6.60;99.90
46231;DHT22;31949;51.404;-0.038;2022-09-29T03:16:43;6.60;99.90
46231;DHT22;31949;51.404;-0.038;2022-09-29T03:19:10;6.60;99.90
46231;DHT22;31949;51.404;-0.038;2022-09-29T03:21:37;6.50;99.90
46231;DHT22;31949;51.404;-0.038;2022-09-29T03:24:04;6.50;99.90
46231;DHT22;31949;51.404;-0.038;2022-09-29T03:26:32;6.50;99.90
46231;DHT22;31949;51.404;-0.038;2022-09-29T03:28:59;6.50;99.90
46231;DHT22;31949;51.404;-0.038;2022-09-29T03:31:26;6.50;99.90
46231;DHT22;31949;51.404;-0.038;2022-09-29T03:33:54;6.50;99.90
46231;DHT22;31949;51.404;-0.038;2022-09-29T03:36:21;6.50;99.90
46231;DHT22;31949;51.404;-0.038;2022-09-29T03:38:48;6.50;99.90
46231;DHT22;31949;51.404;-0.038;2022-09-29T03:41:15;6.50;99.90
46231;DHT22;31949;51.404;-0.038;2022-09-29T03:43:42;6.50;99.90
46231;DHT22;31949;51.404;-0.038;2022-09-29T03:46:09;6.50;99.90
46231;DHT22;31949;51.404;-0.038;2022-09-29T03:48:36;6.50;99.90
46231;DHT22;31949;51.404;-0.038;2022-09-29T03:51:05;6.50;99.90
46231;DHT22;31949;51.404;-0.038;2022-09-29T03:53:35;6.40;99.90
46231;DHT22;31949;51.404;-0.038;2022-09-29T03:56:03;6.40;99.90
46231;DHT22;31949;51.404;-0.038;2022-09-29T03:58:30;6.40;99.90
46231;DHT22;31949;51.404;-0.038;2022-09-29T04:00:57;6.30;99.90
46231;DHT22;31949;51.404;-0.038;2022-09-29T04:03:24;6.40;99.90
46231;DHT22;31949;51.404;-0.038;2022-09-29T04:05:52;6.30;99.90
46231;DHT22;31949;51.404;-0.038;2022-09-29T04:08:19;6.30;99.90
46231;DHT22;31949;51.404;-0.038;2022-09-29T04:10:46;6.30;99.90
46231;DHT22;31949;51.404;-0.038;2022-09-29T04:13:14;6.30;99.90
46231;DHT22;31949;51.404;-0.038;2022-09-29T04:15:49;6.30;99.90
46231;DHT22;31949;51.404;-0.038;2022-09-29T04:18:16;6.20;99.90
46231;DHT22;31949;51.404;-0.038;2022-09-29T04:20:43;6.20;99.90
46231;DHT22;31949;51.404;-0.038;2022-09-29T04:23:10;6.20;99.90
46231;DHT22;31949;51.404;-0.038;2022-09-29T04:25:38;6.20;99.90
46231;DHT22;31949;51.404;-0.038;2022-09-29T04:28:05;6.20;99.90
46231;DHT22;31949;51.404;-0.038;2022-09-29T04:30:32;6.20;99.90
46231;DHT22;31949;51.404;-0.038;2022-09-29T04:32:59;6.20;99.90
46231;DHT22;31949;51.404;-0.038;2022-09-29T04:35:26;6.20;99.90
46231;DHT22;31949;51.404;-0.038;2022-09-29T04:37:55;6.20;99.90
46231;DHT22;31949;51.404;-0.038;2022-09-29T04:40:25;6.20;99.90
46231;DHT22;31949;51.404;-0.038;2022-09-29T04:42:52;6.30;99.90
46231;DHT22;31949;51.404;-0.038;2022-09-29T04:45:19;6.20;99.90
46231;DHT22;31949;51.404;-0.038;2022-09-29T04:47:46;6.30;99.90
46231;DHT22;31949;51.404;-0.038;2022-09-29T04:50:14;6.30;99.90
46231;DHT22;31949;51.404;-0.038;2022-09-29T04:52:42;6.30;99.90
46231;DHT22;31949;51.404;-0.038;2022-09-29T04:55:09;6.40;99.90
46231;DHT22;31949;51.404;-0.038;2022-09-29T04:57:38;6.40;99.90
46231;DHT22;31949;51.404;-0.038;2022-09-29T05:00:06;6.40;99.90
46231;DHT22;31949;51.404;-0.038;2022-09-29T05:02:34;6.50;99.90
46231;DHT22;31949;51.404;-0.038;2022-09-29T05:05:02;6.50;99.90
46231;DHT22;31949;51.404;-0.038;2022-09-29T05:07:29;6.50;99.90
46231;DHT22;31949;51.404;-0.038;2022-09-29T05:09:56;6.60;99.90
46231;DHT22;31949;51.404;-0.038;2022-09-29T05:12:23;6.60;99.90
46231;DHT22;31949;51.404;-0.038;2022-09-29T05:14:50;6.70;99.90
46231;DHT22;31949;51.404;-0.038;2022-09-29T05:17:18;6.70;99.90
46231;DHT22;31949;51.404;-0.038;2022-09-29T05:19:45;6.80;99.90
46231;DHT22;31949;51.404;-0.038;2022-09-29T05:22:12;6.90;99.90
46231;DHT22;31949;51.404;-0.038;2022-09-29T05:24:39;6.90;99.90
46231;DHT22;31949;51.404;-0.038;2022-09-29T05:27:07;6.90;99.90
46231;DHT22;31949;51.404;-0.038;2022-09-29T05:29:34;7.00;99.90
46231;DHT22;31949;51.404;-0.038;2022-09-29T05:32:01;7.00;99.90
46231;DHT22;31949;51.404;-0.038;2022-09-29T05:34:28;7.00;99.90
46231;DHT22;31949;51.404;-0.038;2022-09-29T05:36:55;7.00;99.90
46231;DHT22;31949;51.404;-0.038;2022-09-29T05:39:22;7.10;99.90
46231;DHT22;31949;51.404;-0.038;2022-09-29T05:41:49;7.10;99.90
46231;DHT22;31949;51.404;-0.038;2022-09-29T05:44:17;7.10;99.90
46231;DHT22;31949;51.404;-0.038;2022-09-29T05:46:44;7.20;99.90
46231;DHT22;31949;51.404;-0.038;2022-09-29T05:49:12;7.20;99.90
46231;DHT22;31949;51.404;-0.038;2022-09-29T05:51:39;7.20;99.90
46231;DHT22;31949;51.404;-0.038;2022-09-29T05:54:06;7.30;99.90
46231;DHT22;31949;51.404;-0.038;2022-09-29T05:56:33;7.30;99.90
46231;DHT22;31949;51.404;-0.038;2022-09-29T05:59:00;7.30;99.90
46231;DHT22;31949;51.404;-0.038;2022-09-29T06:01:28;7.30;99.90
46231;DHT22;31949;51.404;-0.038;2022-09-29T06:03:55;7.30;99.90
46231;DHT22;31949;51.404;-0.038;2022-09-29T06:06:26;7.40;99.90
46231;DHT22;31949;51.404;-0.038;2022-09-29T06:08:55;7.40;99.90
46231;DHT22;31949;51.404;-0.038;2022-09-29T06:11:26;7.40;99.90
46231;DHT22;31949;51.404;-0.038;2022-09-29T06:13:54;7.40;99.90
46231;DHT22;31949;51.404;-0.038;2022-09-29T06:16:25;7.50;99.90
46231;DHT22;31949;51.404;-0.038;2022-09-29T06:18:52;7.50;99.90
46231;DHT22;31949;51.404;-0.038;2022-09-29T06:21:25;7.60;99.90
46231;DHT22;31949;51.404;-0.038;2022-09-29T06:23:55;7.60;99.90
46231;DHT22;31949;51.404;-0.038;2022-09-29T06:26:24;7.70;99.90
46231;DHT22;31949;51.404;-0.038;2022-09-29T06:28:52;7.70;99.90
46231;DHT22;31949;51.404;-0.038;2022-09-29T06:31:23;7.70;99.90
46231;DHT22;31949;51.404;-0.038;2022-09-29T06:33:50;7.80;99.90
46231;DHT22;31949;51.404;-0.038;2022-09-29T06:36:19;7.80;99.90
46231;DHT22;31949;51.404;-0.038;2022-09-29T06:39:07;7.80;99.90
46231;DHT22;31949;51.404;-0.038;2022-09-29T06:41:34;7.90;99.90
46231;DHT22;31949;51.404;-0.038;2022-09-29T06:44:02;7.90;99.90
46231;DHT22;31949;51.404;-0.038;2022-09-29T06:46:30;8.00;99.90
46231;DHT22;31949;51.404;-0.038;2022-09-29T06:48:57;8.00;99.90
46231;DHT22;31949;51.404;-0.038;2022-09-29T06:51:25;8.00;99.90
46231;DHT22;31949;51.404;-0.038;2022-09-29T06:54:06;8.00;99.90
46231;DHT22;31949;51.404;-0.038;2022-09-29T06:56:38;8.10;99.90
46231;DHT22;31949;51.404;-0.038;2022-09-29T06:59:07;8.10;99.90
46231;DHT22;31949;51.404;-0.038;2022-09-29T07:01:34;8.20;99.90
46231;DHT22;31949;51.404;-0.038;2022-09-29T07:04:01;8.20;99.90
46231;DHT22;31949;51.404;-0.038;2022-09-29T07:06:29;8.20;99.90
46231;DHT22;31949;51.404;-0.038;2022-09-29T07:08:57;8.30;99.90
46231;DHT22;31949;51.404;-0.038;2022-09-29T07:11:26;8.40;99.90
46231;DHT22;31949;51.404;-0.038;2022-09-29T07:13:53;8.40;99.90
46231;DHT22;31949;51.404;-0.038;2022-09-29T07:16:21;8.40;99.90
46231;DHT22;31949;51.404;-0.038;2022-09-29T07:18:50;8.40;99.90
46231;DHT22;31949;51.404;-0.038;2022-09-29T07:21:19;8.50;99.90
46231;DHT22;31949;51.404;-0.038;2022-09-29T07:23:48;8.60;99.90
46231;DHT22;31949;51.404;-0.038;2022-09-29T07:26:16;8.60;99.90
46231;DHT22;31949;51.404;-0.038;2022-09-29T07:28:45;8.70;99.90
46231;DHT22;31949;51.404;-0.038;2022-09-29T07:31:15;8.80;99.90
46231;DHT22;31949;51.404;-0.038;2022-09-29T07:33:44;8.90;99.90
46231;DHT22;31949;51.404;-0.038;2022-09-29T07:36:13;8.90;99.90
46231;DHT22;31949;51.404;-0.038;2022-09-29T07:38:41;9.00;99.90
46231;DHT22;31949;51.404;-0.038;2022-09-29T07:41:09;9.10;99.90
46231;DHT22;31949;51.404;-0.038;2022-09-29T07:43:38;9.30;99.90
46231;DHT22;31949;51.404;-0.038;2022-09-29T07:46:07;9.40;99.90
46231;DHT22;31949;51.404;-0.038;2022-09-29T07:48:35;9.50;99.90
46231;DHT22;31949;51.404;-0.038;2022-09-29T07:51:19;9.50;99.90
46231;DHT22;31949;51.404;-0.038;2022-09-29T07:53:47;9.50;99.90
46231;DHT22;31949;51.404;-0.038;2022-09-29T07:56:19;9.60;99.90
46231;DHT22;31949;51.404;-0.038;2022-09-29T07:58:48;9.60;99.90
46231;DHT22;31949;51.404;-0.038;2022-09-29T08:01:16;9.60;99.90
46231;DHT22;31949;51.404;-0.038;2022-09-29T08:03:52;9.60;99.90
46231;DHT22;31949;51.404;-0.038;2022-09-29T08:06:21;9.60;99.90
46231;DHT22;31949;51.404;-0.038;2022-09-29T08:08:49;9.80;99.90
46231;DHT22;31949;51.404;-0.038;2022-09-29T08:11:30;9.80;99.90
46231;DHT22;31949;51.404;-0.038;2022-09-29T08:13:59;9.90;99.90
46231;DHT22;31949;51.404;-0.038;2022-09-29T08:16:30;10.00;99.90
46231;DHT22;31949;51.404;-0.038;2022-09-29T08:18:58;10.00;99.90
46231;DHT22;31949;51.404;-0.038;2022-09-29T08:21:26;10.00;99.90
46231;DHT22;31949;51.404;-0.038;2022-09-29T08:23:53;10.10;99.90
46231;DHT22;31949;51.404;-0.038;2022-09-29T08:26:21;10.20;99.90
46231;DHT22;31949;51.404;-0.038;2022-09-29T08:29:05;10.30;99.90
46231;DHT22;31949;51.404;-0.038;2022-09-29T08:31:35;10.30;99.90
46231;DHT22;31949;51.404;-0.038;2022-09-29T08:34:05;10.40;99.90
46231;DHT22;31949;51.404;-0.038;2022-09-29T08:36:32;10.50;99.90
46231;DHT22;31949;51.404;-0.038;2022-09-29T08:38:59;10.60;99.90
46231;DHT22;31949;51.404;-0.038;2022-09-29T08:44:10;10.60;99.90
46231;DHT22;31949;51.404;-0.038;2022-09-29T08:47:19;10.70;99.90
46231;DHT22;31949;51.404;-0.038;2022-09-29T08:49:53;10.80;99.90
46231;DHT22;31949;51.404;-0.038;2022-09-29T08:52:30;10.90;99.90
46231;DHT22;31949;51.404;-0.038;2022-09-29T08:57:51;11.10;99.90
46231;DHT22;31949;51.404;-0.038;2022-09-29T09:01:01;11.10;99.90
46231;DHT22;31949;51.404;-0.038;2022-09-29T09:06:15;11.30;99.90
46231;DHT22;31949;51.404;-0.038;2022-09-29T09:11:35;11.50;99.90
46231;DHT22;31949;51.404;-0.038;2022-09-29T09:14:11;11.50;99.90
46231;DHT22;31949;51.404;-0.038;2022-09-29T09:17:02;11.50;99.90
46231;DHT22;31949;51.404;-0.038;2022-09-29T09:27:30;11.80;99.90
46231;DHT22;31949;51.404;-0.038;2022-09-29T09:30:14;11.80;99.90
46231;DHT22;31949;51.404;-0.038;2022-09-29T09:32:49;11.90;99.90
46231;DHT22;31949;51.404;-0.038;2022-09-29T09:35:39;12.00;99.90
46231;DHT22;31949;51.404;-0.038;2022-09-29T09:38:31;12.20;99.90
46231;DHT22;31949;51.404;-0.038;2022-09-29T09:41:01;12.20;99.90
46231;DHT22;31949;51.404;-0.038;2022-09-29T09:43:52;12.20;99.90
46231;DHT22;31949;51.404;-0.038;2022-09-29T09:54:28;12.60;99.90
46231;DHT22;31949;51.404;-0.038;2022-09-29T09:57:23;12.70;99.90
46231;DHT22;31949;51.404;-0.038;2022-09-29T10:02:47;13.00;99.90
46231;DHT22;31949;51.404;-0.038;2022-09-29T10:05:18;13.20;99.90
46231;DHT22;31949;51.404;-0.038;2022-09-29T10:07:46;13.40;99.90
46231;DHT22;31949;51.404;-0.038;2022-09-29T10:10:22;13.50;99.90
46231;DHT22;31949;51.404;-0.038;2022-09-29T10:13:05;13.60;99.90
46231;DHT22;31949;51.404;-0.038;2022-09-29T10:18:14;13.90;99.90
46231;DHT22;31949;51.404;-0.038;2022-09-29T10:20:43;14.00;99.90
46231;DHT22;31949;51.404;-0.038;2022-09-29T10:23:34;14.00;99.90
46231;DHT22;31949;51.404;-0.038;2022-09-29T10:26:16;14.00;99.90
46231;DHT22;31949;51.404;-0.038;2022-09-29T10:29:00;14.20;99.90
46231;DHT22;31949;51.404;-0.038;2022-09-29T10:31:29;14.30;99.90
46231;DHT22;31949;51.404;-0.038;2022-09-29T10:36:33;14.30;99.90
46231;DHT22;31949;51.404;-0.038;2022-09-29T10:39:39;14.20;99.90
46231;DHT22;31949;51.404;-0.038;2022-09-29T10:42:36;14.20;99.90
46231;DHT22;31949;51.404;-0.038;2022-09-29T10:45:32;14.20;99.90
46231;DHT22;31949;51.404;-0.038;2022-09-29T10:48:12;14.30;99.90
46231;DHT22;31949;51.404;-0.038;2022-09-29T10:50:55;14.60;99.90
46231;DHT22;31949;51.404;-0.038;2022-09-29T10:55:53;14.60;99.90
46231;DHT22;31949;51.404;-0.038;2022-09-29T10:58:34;14.80;99.90
46231;DHT22;31949;51.404;-0.038;2022-09-29T11:01:20;14.80;99.90
46231;DHT22;31949;51.404;-0.038;2022-09-29T11:03:55;14.90;99.90
46231;DHT22;31949;51.404;-0.038;2022-09-29T11:06:30;14.80;99.90
46231;DHT22;31949;51.404;-0.038;2022-09-29T11:09:02;14.80;99.90
46231;DHT22;31949;51.404;-0.038;2022-09-29T11:11:38;14.80;99.90
46231;DHT22;31949;51.404;-0.038;2022-09-29T11:14:27;15.00;99.90
46231;DHT22;31949;51.404;-0.038;2022-09-29T11:16:57;14.90;99.90
46231;DHT22;31949;51.404;-0.038;2022-09-29T11:19:26;15.00;99.90
46231;DHT22;31949;51.404;-0.038;2022-09-29T11:27:57;15.00;99.90
46231;DHT22;31949;51.404;-0.038;2022-09-29T11:39:37;15.80;99.90
46231;DHT22;31949;51.404;-0.038;2022-09-29T11:44:59;16.20;99.90
46231;DHT22;31949;51.404;-0.038;2022-09-29T11:47:38;16.30;99.90
46231;DHT22;31949;51.404;-0.038;2022-09-29T12:06:51;15.40;99.90
46231;DHT22;31949;51.404;-0.038;2022-09-29T12:09:35;15.30;99.90
46231;DHT22;31949;51.404;-0.038;2022-09-29T12:12:24;15.30;99.90
46231;DHT22;31949;51.404;-0.038;2022-09-29T12:15:28;15.20;99.90
46231;DHT22;31949;51.404;-0.038;2022-09-29T12:18:07;15.20;99.90
46231;DHT22;31949;51.404;-0.038;2022-09-29T12:20:41;15.20;99.90
46231;DHT22;31949;51.404;-0.038;2022-09-29T12:23:10;15.20;99.90
46231;DHT22;31949;51.404;-0.038;2022-09-29T12:28:39;15.30;99.90
46231;DHT22;31949;51.404;-0.038;2022-09-29T12:31:33;15.60;99.90
46231;DHT22;31949;51.404;-0.038;2022-09-29T12:34:15;15.70;99.90
46231;DHT22;31949;51.404;-0.038;2022-09-29T12:53:13;16.10;99.90
46231;DHT22;31949;51.404;-0.038;2022-09-29T12:56:13;15.90;99.90
46231;DHT22;31949;51.404;-0.038;2022-09-29T12:59:11;15.90;99.90
46231;DHT22;31949;51.404;-0.038;2022-09-29T13:01:40;16.00;99.90
46231;DHT22;31949;51.404;-0.038;2022-09-29T13:16:13;15.80;99.90
46231;DHT22;31949;51.404;-0.038;2022-09-29T13:27:38;16.30;99.90
46231;DHT22;31949;51.404;-0.038;2022-09-29T13:32:49;16.40;99.90
46231;DHT22;31949;51.404;-0.038;2022-09-29T13:35:21;16.40;99.90
46231;DHT22;31949;51.404;-0.038;2022-09-29T13:38:00;16.40;99.90
46231;DHT22;31949;51.404;-0.038;2022-09-29T13:40:30;16.20;99.90
46231;DHT22;31949;51.404;-0.038;2022-09-29T13:42:59;16.20;99.90
46231;DHT22;31949;51.404;-0.038;2022-09-29T13:48:32;16.20;99.90
46231;DHT22;31949;51.404;-0.038;2022-09-29T13:50:51;16.30;99.90
46231;DHT22;31949;51.404;-0.038;2022-09-29T13:58:52;16.40;99.90
46231;DHT22;31949;51.404;-0.038;2022-09-29T14:01:34;16.40;99.90
46231;DHT22;31949;51.404;-0.038;2022-09-29T14:07:05;16.50;99.90
46231;DHT22;31949;51.404;-0.038;2022-09-29T14:09:37;16.60;99.90
46231;DHT22;31949;51.404;-0.038;2022-09-29T14:12:17;16.80;99.90
46231;DHT22;31949;51.404;-0.038;2022-09-29T14:14:55;16.90;99.90
46231;DHT22;31949;51.404;-0.038;2022-09-29T14:17:34;17.10;99.90
46231;DHT22;31949;51.404;-0.038;2022-09-29T14:20:27;17.20;99.90
46231;DHT22;31949;51.404;-0.038;2022-09-29T14:23:04;17.40;99.90
46231;DHT22;31949;51.404;-0.038;2022-09-29T14:28:12;17.50;98.70
46231;DHT22;31949;51.404;-0.038;2022-09-29T14:30:49;17.40;98.20
46231;DHT22;31949;51.404;-0.038;2022-09-29T14:33:29;17.10;99.30
46231;DHT22;31949;51.404;-0.038;2022-09-29T14:36:09;17.00;99.80
46231;DHT22;31949;51.404;-0.038;2022-09-29T14:38:49;16.80;99.90
46231;DHT22;31949;51.404;-0.038;2022-09-29T14:41:40;16.70;99.30
46231;DHT22;31949;51.404;-0.038;2022-09-29T14:56:17;16.50;99.90
46231;DHT22;31949;51.404;-0.038;2022-09-29T15:01:29;16.70;99.90
46231;DHT22;31949;51.404;-0.038;2022-09-29T15:06:45;16.70;99.90
46231;DHT22;31949;51.404;-0.038;2022-09-29T15:09:21;16.70;99.90
46231;DHT22;31949;51.404;-0.038;2022-09-29T15:11:51;16.70;99.90
46231;DHT22;31949;51.404;-0.038;2022-09-29T15:14:23;16.70;99.90
46231;DHT22;31949;51.404;-0.038;2022-09-29T15:27:50;16.40;98.60
46231;DHT22;31949;51.404;-0.038;2022-09-29T15:30:20;16.40;98.10
46231;DHT22;31949;51.404;-0.038;2022-09-29T15:32:49;16.50;98.00
46231;DHT22;31949;51.404;-0.038;2022-09-29T15:35:22;16.40;97.80
46231;DHT22;31949;51.404;-0.038;2022-09-29T15:38:15;16.40;99.50
46231;DHT22;31949;51.404;-0.038;2022-09-29T15:40:43;16.50;98.90
46231;DHT22;31949;51.404;-0.038;2022-09-29T15:43:20;16.60;98.10
46231;DHT22;31949;51.404;-0.038;2022-09-29T15:46:01;16.60;98.60
46231;DHT22;31949;51.404;-0.038;2022-09-29T15:48:38;16.50;98.10
46231;DHT22;31949;51.404;-0.038;2022-09-29T15:51:16;16.40;98.80
46231;DHT22;31949;51.404;-0.038;2022-09-29T15:53:44;16.30;98.70
46231;DHT22;31949;51.404;-0.038;2022-09-29T15:56:12;16.30;98.80
46231;DHT22;31949;51.404;-0.038;2022-09-29T15:58:43;16.30;98.80
46231;DHT22;31949;51.404;-0.038;2022-09-29T16:01:13;16.30;99.00
46231;DHT22;31949;51.404;-0.038;2022-09-29T16:06:32;16.40;98.50
46231;DHT22;31949;51.404;-0.038;2022-09-29T16:09:04;16.50;98.70
46231;DHT22;31949;51.404;-0.038;2022-09-29T16:11:34;16.60;98.30
46231;DHT22;31949;51.404;-0.038;2022-09-29T16:14:08;16.60;97.90
46231;DHT22;31949;51.404;-0.038;2022-09-29T16:16:40;16.50;99.20
46231;DHT22;31949;51.404;-0.038;2022-09-29T16:19:16;16.50;99.60
46231;DHT22;31949;51.404;-0.038;2022-09-29T16:21:51;16.50;98.60
46231;DHT22;31949;51.404;-0.038;2022-09-29T16:24:20;16.50;99.30
46231;DHT22;31949;51.404;-0.038;2022-09-29T16:26:50;16.50;99.20
46231;DHT22;31949;51.404;-0.038;2022-09-29T16:31:47;16.50;98.30
46231;DHT22;31949;51.404;-0.038;2022-09-29T16:36:56;16.30;99.10
46231;DHT22;31949;51.404;-0.038;2022-09-29T16:39:26;16.20;99.90
46231;DHT22;31949;51.404;-0.038;2022-09-29T16:41:56;16.10;99.30
46231;DHT22;31949;51.404;-0.038;2022-09-29T16:50:05;15.90;99.90
46231;DHT22;31949;51.404;-0.038;2022-09-29T16:52:41;15.80;99.60
46231;DHT22;31949;51.404;-0.038;2022-09-29T16:58:10;15.70;99.20
46231;DHT22;31949;51.404;-0.038;2022-09-29T17:00:39;15.70;98.70
46231;DHT22;31949;51.404;-0.038;2022-09-29T17:03:08;15.60;99.80
46231;DHT22;31949;51.404;-0.038;2022-09-29T17:05:41;15.60;98.90
46231;DHT22;31949;51.404;-0.038;2022-09-29T17:08:17;15.50;99.50
46231;DHT22;31949;51.404;-0.038;2022-09-29T17:10:51;15.50;99.10
46231;DHT22;31949;51.404;-0.038;2022-09-29T17:13:19;15.50;99.80
46231;DHT22;31949;51.404;-0.038;2022-09-29T17:15:49;15.40;99.80
46231;DHT22;31949;51.404;-0.038;2022-09-29T17:18:19;15.40;99.90
46231;DHT22;31949;51.404;-0.038;2022-09-29T17:20:46;15.40;99.90
46231;DHT22;31949;51.404;-0.038;2022-09-29T17:23:14;15.30;99.90
46231;DHT22;31949;51.404;-0.038;2022-09-29T17:25:43;15.30;99.90
46231;DHT22;31949;51.404;-0.038;2022-09-29T17:28:22;15.20;99.90
46231;DHT22;31949;51.404;-0.038;2022-09-29T17:30:51;15.20;99.90
46231;DHT22;31949;51.404;-0.038;2022-09-29T17:33:21;15.10;99.90
46231;DHT22;31949;51.404;-0.038;2022-09-29T17:35:50;15.00;99.90
46231;DHT22;31949;51.404;-0.038;2022-09-29T17:38:22;15.00;99.90
46231;DHT22;31949;51.404;-0.038;2022-09-29T17:40:51;14.90;99.90
46231;DHT22;31949;51.404;-0.038;2022-09-29T17:43:20;14.90;99.90
46231;DHT22;31949;51.404;-0.038;2022-09-29T17:45:50;14.80;99.90
46231;DHT22;31949;51.404;-0.038;2022-09-29T17:48:17;14.70;99.90
46231;DHT22;31949;51.404;-0.038;2022-09-29T17:50:48;14.60;99.90
46231;DHT22;31949;51.404;-0.038;2022-09-29T17:53:16;14.60;99.90
46231;DHT22;31949;51.404;-0.038;2022-09-29T17:55:49;14.50;99.90
46231;DHT22;31949;51.404;-0.038;2022-09-29T17:58:18;14.40;99.90
46231;DHT22;31949;51.404;-0.038;2022-09-29T18:00:52;14.30;99.90
46231;DHT22;31949;51.404;-0.038;2022-09-29T18:03:20;14.20;99.90
46231;DHT22;31949;51.404;-0.038;2022-09-29T18:05:51;14.10;99.90
46231;DHT22;31949;51.404;-0.038;2022-09-29T18:08:25;14.00;99.90
46231;DHT22;31949;51.404;-0.038;2022-09-29T18:10:57;14.00;99.90
46231;DHT22;31949;51.404;-0.038;2022-09-29T18:13:26;14.00;99.90
46231;DHT22;31949;51.404;-0.038;2022-09-29T18:15:58;13.90;99.90
46231;DHT22;31949;51.404;-0.038;2022-09-29T18:18:26;13.80;99.90
46231;DHT22;31949;51.404;-0.038;2022-09-29T18:20:54;13.70;99.90
46231;DHT22;31949;51.404;-0.038;2022-09-29T18:23:21;13.70;99.90
46231;DHT22;31949;51.404;-0.038;2022-09-29T18:25:52;13.60;99.90
46231;DHT22;31949;51.404;-0.038;2022-09-29T18:28:19;13.60;99.90
46231;DHT22;31949;51.404;-0.038;2022-09-29T18:30:49;13.50;99.90
46231;DHT22;31949;51.404;-0.038;2022-09-29T18:33:19;13.50;99.90
46231;DHT22;31949;51.404;-0.038;2022-09-29T18:35:51;13.40;99.90
46231;DHT22;31949;51.404;-0.038;2022-09-29T18:38:19;13.40;99.90
46231;DHT22;31949;51.404;-0.038;2022-09-29T18:40:47;13.30;99.90
46231;DHT22;31949;51.404;-0.038;2022-09-29T18:43:14;13.30;99.90
46231;DHT22;31949;51.404;-0.038;2022-09-29T18:45:42;13.30;99.90
46231;DHT22;31949;51.404;-0.038;2022-09-29T18:48:11;13.20;99.90
46231;DHT22;31949;51.404;-0.038;2022-09-29T18:50:47;13.20;99.90
46231;DHT22;31949;51.404;-0.038;2022-09-29T18:53:16;13.10;99.90
46231;DHT22;31949;51.404;-0.038;2022-09-29T18:55:45;13.00;99.90
46231;DHT22;31949;51.404;-0.038;2022-09-29T18:58:14;12.90;99.90
46231;DHT22;31949;51.404;-0.038;2022-09-29T19:00:44;12.90;99.90
46231;DHT22;31949;51.404;-0.038;2022-09-29T19:03:12;12.90;99.90
46231;DHT22;31949;51.404;-0.038;2022-09-29T19:05:41;12.80;99.90
46231;DHT22;31949;51.404;-0.038;2022-09-29T19:08:11;12.80;99.90
46231;DHT22;31949;51.404;-0.038;2022-09-29T19:10:39;12.70;99.90
46231;DHT22;31949;51.404;-0.038;2022-09-29T19:13:10;12.70;99.90